sensor_id;sensor_type;location;lat;lon;timestamp;temperature;humidity
3542;DHT22;1785;47.388;8.538;2023-09-30T00:01:18;22.00;99.90
3542;DHT22;1785;47.388;8.538;2023-09-30T00:03:44;22.20;99.90
3542;DHT22;1785;47.388;8.538;2023-09-30T00:06:10;22.40;99.90
3542;DHT22;1785;47.388;8.538;2023-09-30T00:08:37;22.50;99.90
3542;DHT22;1785;47.388;8.538;2023-09-30T00:11:06;22.60;99.90
3542;DHT22;1785;47.388;8.538;2023-09-30T00:13:32;22.60;99.90
3542;DHT22;1785;47.388;8.538;2023-09-30T00:15:58;22.60;99.90
3542;DHT22;1785;47.388;8.538;2023-09-30T00:18:24;22.70;99.90
3542;DHT22;1785;47.388;8.538;2023-09-30T00:20:50;22.60;99.90
3542;DHT22;1785;47.388;8.538;2023-09-30T00:23:16;22.30;99.90
3542;DHT22;1785;47.388;8.538;2023-09-30T00:25:43;21.90;99.90
3542;DHT22;1785;47.388;8.538;2023-09-30T00:28:10;21.70;99.90
3542;DHT22;1785;47.388;8.538;2023-09-30T00:30:36;21.70;99.90
3542;DHT22;1785;47.388;8.538;2023-09-30T00:33:04;22.00;99.90
3542;DHT22;1785;47.388;8.538;2023-09-30T00:35:32;22.10;99.90
3542;DHT22;1785;47.388;8.538;2023-09-30T00:37:58;22.20;99.90
3542;DHT22;1785;47.388;8.538;2023-09-30T00:40:24;22.30;99.90
3542;DHT22;1785;47.388;8.538;2023-09-30T00:42:50;22.40;99.90
3542;DHT22;1785;47.388;8.538;2023-09-30T00:45:17;22.00;99.90
3542;DHT22;1785;47.388;8.538;2023-09-30T00:47:43;21.70;99.90
3542;DHT22;1785;47.388;8.538;2023-09-30T00:50:09;21.60;99.90
3542;DHT22;1785;47.388;8.538;2023-09-30T00:52:38;21.60;99.90
3542;DHT22;1785;47.388;8.538;2023-09-30T00:55:05;21.70;99.90
3542;DHT22;1785;47.388;8.538;2023-09-30T00:57:32;21.50;99.90
3542;DHT22;1785;47.388;8.538;2023-09-30T01:00:00;21.50;99.90
3542;DHT22;1785;47.388;8.538;2023-09-30T01:02:27;21.70;99.90
3542;DHT22;1785;47.388;8.538;2023-09-30T01:04:54;21.70;99.90
3542;DHT22;1785;47.388;8.538;2023-09-30T01:07:21;21.70;99.90
3542;DHT22;1785;47.388;8.538;2023-09-30T01:09:47;21.90;99.90
3542;DHT22;1785;47.388;8.538;2023-09-30T01:12:13;22.10;99.90
3542;DHT22;1785;47.388;8.538;2023-09-30T01:14:40;21.90;99.90
3542;DHT22;1785;47.388;8.538;2023-09-30T01:17:08;22.00;99.90
3542;DHT22;1785;47.388;8.538;2023-09-30T01:19:35;22.00;99.90
3542;DHT22;1785;47.388;8.538;2023-09-30T01:22:02;22.00;99.90
3542;DHT22;1785;47.388;8.538;2023-09-30T01:24:31;21.90;99.90
3542;DHT22;1785;47.388;8.538;2023-09-30T01:27:03;22.00;99.90
3542;DHT22;1785;47.388;8.538;2023-09-30T01:29:29;21.90;99.90
3542;DHT22;1785;47.388;8.538;2023-09-30T01:31:55;21.90;99.90
3542;DHT22;1785;47.388;8.538;2023-09-30T01:34:22;21.70;99.90
3542;DHT22;1785;47.388;8.538;2023-09-30T01:36:48;21.50;99.90
3542;DHT22;1785;47.388;8.538;2023-09-30T01:39:15;21.50;99.90
3542;DHT22;1785;47.388;8.538;2023-09-30T01:41:41;21.40;99.90
3542;DHT22;1785;47.388;8.538;2023-09-30T01:44:07;21.00;99.90
3542;DHT22;1785;47.388;8.538;2023-09-30T01:46:35;20.90;99.90
3542;DHT22;1785;47.388;8.538;2023-09-30T01:49:01;21.10;99.90
3542;DHT22;1785;47.388;8.538;2023-09-30T01:51:29;21.00;99.90
3542;DHT22;1785;47.388;8.538;2023-09-30T01:53:55;21.10;99.90
3542;DHT22;1785;47.388;8.538;2023-09-30T01:56:22;21.30;99.90
3542;DHT22;1785;47.388;8.538;2023-09-30T01:58:48;21.50;99.90
3542;DHT22;1785;47.388;8.538;2023-09-30T02:01:14;21.80;99.90
3542;DHT22;1785;47.388;8.538;2023-09-30T02:03:41;21.80;99.90
3542;DHT22;1785;47.388;8.538;2023-09-30T02:06:07;21.70;99.90
3542;DHT22;1785;47.388;8.538;2023-09-30T02:08:33;21.50;99.90
3542;DHT22;1785;47.388;8.538;2023-09-30T02:11:02;21.70;99.90
3542;DHT22;1785;47.388;8.538;2023-09-30T02:13:28;21.90;99.90
3542;DHT22;1785;47.388;8.538;2023-09-30T02:15:55;21.90;99.90
3542;DHT22;1785;47.388;8.538;2023-09-30T02:18:21;21.50;99.90
3542;DHT22;1785;47.388;8.538;2023-09-30T02:20:47;21.50;99.90
3542;DHT22;1785;47.388;8.538;2023-09-30T02:23:13;21.60;99.90
3542;DHT22;1785;47.388;8.538;2023-09-30T02:25:41;21.00;99.90
3542;DHT22;1785;47.388;8.538;2023-09-30T02:28:09;21.00;99.90
3542;DHT22;1785;47.388;8.538;2023-09-30T02:30:35;21.00;99.90
3542;DHT22;1785;47.388;8.538;2023-09-30T02:33:02;20.90;99.90
3542;DHT22;1785;47.388;8.538;2023-09-30T02:35:28;20.90;99.90
3542;DHT22;1785;47.388;8.538;2023-09-30T02:37:54;20.90;99.90
3542;DHT22;1785;47.388;8.538;2023-09-30T02:40:20;20.90;99.90
3542;DHT22;1785;47.388;8.538;2023-09-30T02:42:50;20.80;99.90
3542;DHT22;1785;47.388;8.538;2023-09-30T02:45:17;20.70;99.90
3542;DHT22;1785;47.388;8.538;2023-09-30T02:47:44;20.80;99.90
3542;DHT22;1785;47.388;8.538;2023-09-30T02:50:10;21.00;99.90
3542;DHT22;1785;47.388;8.538;2023-09-30T02:52:37;20.90;99.90
3542;DHT22;1785;47.388;8.538;2023-09-30T02:55:05;21.00;99.90
3542;DHT22;1785;47.388;8.538;2023-09-30T02:57:32;20.90;99.90
3542;DHT22;1785;47.388;8.538;2023-09-30T02:59:58;21.10;99.90
3542;DHT22;1785;47.388;8.538;2023-09-30T03:02:31;21.20;99.90
3542;DHT22;1785;47.388;8.538;2023-09-30T03:04:59;21.10;99.90
3542;DHT22;1785;47.388;8.538;2023-09-30T03:07:25;21.00;99.90
3542;DHT22;1785;47.388;8.538;2023-09-30T03:09:51;21.00;99.90
3542;DHT22;1785;47.388;8.538;2023-09-30T03:12:18;20.90;99.90
3542;DHT22;1785;47.388;8.538;2023-09-30T03:14:44;21.10;99.90
3542;DHT22;1785;47.388;8.538;2023-09-30T03:17:10;21.10;99.90
3542;DHT22;1785;47.388;8.538;2023-09-30T03:19:37;20.80;99.90
3542;DHT22;1785;47.388;8.538;2023-09-30T03:22:05;20.90;99.90
3542;DHT22;1785;47.388;8.538;2023-09-30T03:24:31;20.90;99.90
3542;DHT22;1785;47.388;8.538;2023-09-30T03:26:57;20.90;99.90
3542;DHT22;1785;47.388;8.538;2023-09-30T03:29:23;20.90;99.90
3542;DHT22;1785;47.388;8.538;2023-09-30T03:31:49;20.80;99.90
3542;DHT22;1785;47.388;8.538;2023-09-30T03:34:16;21.00;99.90
3542;DHT22;1785;47.388;8.538;2023-09-30T03:36:42;20.80;99.90
3542;DHT22;1785;47.388;8.538;2023-09-30T03:39:09;20.90;99.90
3542;DHT22;1785;47.388;8.538;2023-09-30T03:41:40;20.60;99.90
3542;DHT22;1785;47.388;8.538;2023-09-30T03:44:06;20.20;99.90
3542;DHT22;1785;47.388;8.538;2023-09-30T03:46:32;20.10;99.90
3542;DHT22;1785;47.388;8.538;2023-09-30T03:48:58;20.20;99.90
3542;DHT22;1785;47.388;8.538;2023-09-30T03:51:24;20.50;99.90
3542;DHT22;1785;47.388;8.538;2023-09-30T03:53:51;20.80;99.90
3542;DHT22;1785;47.388;8.538;2023-09-30T03:56:18;21.00;99.90
3542;DHT22;1785;47.388;8.538;2023-09-30T03:58:44;21.10;99.90
3542;DHT22;1785;47.388;8.538;2023-09-30T04:01:10;21.20;99.90
3542;DHT22;1785;47.388;8.538;2023-09-30T04:03:37;20.90;99.90
3542;DHT22;1785;47.388;8.538;2023-09-30T04:06:05;20.50;99.90
3542;DHT22;1785;47.388;8.538;2023-09-30T04:08:32;20.40;99.90
3542;DHT22;1785;47.388;8.538;2023-09-30T04:10:58;20.40;99.90
3542;DHT22;1785;47.388;8.538;2023-09-30T04:13:26;20.40;99.90
3542;DHT22;1785;47.388;8.538;2023-09-30T04:15:52;20.20;99.90
3542;DHT22;1785;47.388;8.538;2023-09-30T04:18:20;20.30;99.90
3542;DHT22;1785;47.388;8.538;2023-09-30T04:20:47;20.30;99.90
3542;DHT22;1785;47.388;8.538;2023-09-30T04:23:14;20.40;99.90
3542;DHT22;1785;47.388;8.538;2023-09-30T04:25:40;20.70;99.90
3542;DHT22;1785;47.388;8.538;2023-09-30T04:28:08;20.80;99.90
3542;DHT22;1785;47.388;8.538;2023-09-30T04:30:35;21.00;99.90
3542;DHT22;1785;47.388;8.538;2023-09-30T04:33:01;20.90;99.90
3542;DHT22;1785;47.388;8.538;2023-09-30T04:35:30;20.60;99.90
3542;DHT22;1785;47.388;8.538;2023-09-30T04:37:56;20.60;99.90
3542;DHT22;1785;47.388;8.538;2023-09-30T04:40:24;20.50;99.90
3542;DHT22;1785;47.388;8.538;2023-09-30T04:42:52;20.50;99.90
3542;DHT22;1785;47.388;8.538;2023-09-30T04:45:20;20.20;99.90
3542;DHT22;1785;47.388;8.538;2023-09-30T04:47:50;20.20;99.90
3542;DHT22;1785;47.388;8.538;2023-09-30T04:50:16;20.40;99.90
3542;DHT22;1785;47.388;8.538;2023-09-30T04:52:43;20.70;99.90
3542;DHT22;1785;47.388;8.538;2023-09-30T04:55:10;20.70;99.90
3542;DHT22;1785;47.388;8.538;2023-09-30T04:57:37;20.60;99.90
3542;DHT22;1785;47.388;8.538;2023-09-30T05:00:04;20.70;99.90
3542;DHT22;1785;47.388;8.538;2023-09-30T05:02:37;20.90;99.90
3542;DHT22;1785;47.388;8.538;2023-09-30T05:05:05;21.00;99.90
3542;DHT22;1785;47.388;8.538;2023-09-30T05:07:31;20.90;99.90
3542;DHT22;1785;47.388;8.538;2023-09-30T05:09:57;20.70;99.90
3542;DHT22;1785;47.388;8.538;2023-09-30T05:12:25;20.50;99.90
3542;DHT22;1785;47.388;8.538;2023-09-30T05:14:51;20.00;99.90
3542;DHT22;1785;47.388;8.538;2023-09-30T05:17:17;19.60;99.90
3542;DHT22;1785;47.388;8.538;2023-09-30T05:19:43;19.50;99.90
3542;DHT22;1785;47.388;8.538;2023-09-30T05:22:10;19.50;99.90
3542;DHT22;1785;47.388;8.538;2023-09-30T05:24:37;19.50;99.90
3542;DHT22;1785;47.388;8.538;2023-09-30T05:27:03;19.50;99.90
3542;DHT22;1785;47.388;8.538;2023-09-30T05:29:30;19.60;99.90
3542;DHT22;1785;47.388;8.538;2023-09-30T05:31:58;19.80;99.90
3542;DHT22;1785;47.388;8.538;2023-09-30T05:34:24;19.80;99.90
3542;DHT22;1785;47.388;8.538;2023-09-30T05:36:50;19.80;99.90
3542;DHT22;1785;47.388;8.538;2023-09-30T05:39:17;19.70;99.90
3542;DHT22;1785;47.388;8.538;2023-09-30T05:41:45;19.60;99.90
3542;DHT22;1785;47.388;8.538;2023-09-30T05:44:12;19.20;99.90
3542;DHT22;1785;47.388;8.538;2023-09-30T05:46:39;19.00;99.90
3542;DHT22;1785;47.388;8.538;2023-09-30T05:49:05;18.80;99.90
3542;DHT22;1785;47.388;8.538;2023-09-30T05:51:35;18.90;99.90
3542;DHT22;1785;47.388;8.538;2023-09-30T05:54:01;19.20;99.90
3542;DHT22;1785;47.388;8.538;2023-09-30T05:56:28;19.40;99.90
3542;DHT22;1785;47.388;8.538;2023-09-30T05:58:54;19.20;99.90
3542;DHT22;1785;47.388;8.538;2023-09-30T06:01:21;19.50;99.90
3542;DHT22;1785;47.388;8.538;2023-09-30T06:03:47;19.40;99.90
3542;DHT22;1785;47.388;8.538;2023-09-30T06:06:14;19.30;99.90
3542;DHT22;1785;47.388;8.538;2023-09-30T06:08:42;19.50;99.90
3542;DHT22;1785;47.388;8.538;2023-09-30T06:11:16;19.30;99.90
3542;DHT22;1785;47.388;8.538;2023-09-30T06:13:43;19.10;99.90
3542;DHT22;1785;47.388;8.538;2023-09-30T06:16:09;19.20;99.90
3542;DHT22;1785;47.388;8.538;2023-09-30T06:18:36;19.20;99.90
3542;DHT22;1785;47.388;8.538;2023-09-30T06:21:02;19.10;99.90
3542;DHT22;1785;47.388;8.538;2023-09-30T06:23:29;19.30;99.90
3542;DHT22;1785;47.388;8.538;2023-09-30T06:25:55;19.20;99.90
3542;DHT22;1785;47.388;8.538;2023-09-30T06:28:21;18.80;99.90
3542;DHT22;1785;47.388;8.538;2023-09-30T06:30:52;18.80;99.90
3542;DHT22;1785;47.388;8.538;2023-09-30T06:33:18;19.20;99.90
3542;DHT22;1785;47.388;8.538;2023-09-30T06:35:44;19.40;99.90
3542;DHT22;1785;47.388;8.538;2023-09-30T06:38:16;19.50;99.90
3542;DHT22;1785;47.388;8.538;2023-09-30T06:40:43;19.50;99.90
3542;DHT22;1785;47.388;8.538;2023-09-30T06:43:09;19.00;99.90
3542;DHT22;1785;47.388;8.538;2023-09-30T06:45:36;19.00;99.90
3542;DHT22;1785;47.388;8.538;2023-09-30T06:48:07;19.00;99.90
3542;DHT22;1785;47.388;8.538;2023-09-30T06:50:39;19.00;99.90
3542;DHT22;1785;47.388;8.538;2023-09-30T06:53:05;19.30;99.90
3542;DHT22;1785;47.388;8.538;2023-09-30T06:55:31;19.40;99.90
3542;DHT22;1785;47.388;8.538;2023-09-30T06:57:57;19.10;99.90
3542;DHT22;1785;47.388;8.538;2023-09-30T07:00:23;18.80;99.90
3542;DHT22;1785;47.388;8.538;2023-09-30T07:02:51;19.00;99.90
3542;DHT22;1785;47.388;8.538;2023-09-30T07:05:17;19.10;99.90
3542;DHT22;1785;47.388;8.538;2023-09-30T07:07:43;19.10;99.90
3542;DHT22;1785;47.388;8.538;2023-09-30T07:10:10;19.30;99.90
3542;DHT22;1785;47.388;8.538;2023-09-30T07:12:36;19.60;99.90
3542;DHT22;1785;47.388;8.538;2023-09-30T07:15:03;19.90;99.90
3542;DHT22;1785;47.388;8.538;2023-09-30T07:17:29;19.90;99.90
3542;DHT22;1785;47.388;8.538;2023-09-30T07:19:56;19.70;99.90
3542;DHT22;1785;47.388;8.538;2023-09-30T07:22:22;19.90;99.90
3542;DHT22;1785;47.388;8.538;2023-09-30T07:24:48;20.10;99.90
3542;DHT22;1785;47.388;8.538;2023-09-30T07:27:16;20.00;99.90
3542;DHT22;1785;47.388;8.538;2023-09-30T07:29:43;20.00;99.90
3542;DHT22;1785;47.388;8.538;2023-09-30T07:32:09;20.00;99.90
3542;DHT22;1785;47.388;8.538;2023-09-30T07:34:35;19.90;99.90
3542;DHT22;1785;47.388;8.538;2023-09-30T07:37:01;19.70;99.90
3542;DHT22;1785;47.388;8.538;2023-09-30T07:39:29;19.60;99.90
3542;DHT22;1785;47.388;8.538;2023-09-30T07:41:55;19.80;99.90
3542;DHT22;1785;47.388;8.538;2023-09-30T07:44:21;19.90;99.90
3542;DHT22;1785;47.388;8.538;2023-09-30T07:46:47;19.50;99.90
3542;DHT22;1785;47.388;8.538;2023-09-30T07:49:13;19.30;99.90
3542;DHT22;1785;47.388;8.538;2023-09-30T07:51:39;19.40;99.90
3542;DHT22;1785;47.388;8.538;2023-09-30T07:54:05;19.40;99.90
3542;DHT22;1785;47.388;8.538;2023-09-30T07:56:32;19.60;99.90
3542;DHT22;1785;47.388;8.538;2023-09-30T07:58:59;19.80;99.90
3542;DHT22;1785;47.388;8.538;2023-09-30T08:01:25;20.00;99.90
3542;DHT22;1785;47.388;8.538;2023-09-30T08:03:51;20.40;99.90
3542;DHT22;1785;47.388;8.538;2023-09-30T08:06:17;20.60;99.90
3542;DHT22;1785;47.388;8.538;2023-09-30T08:08:43;20.80;99.90
3542;DHT22;1785;47.388;8.538;2023-09-30T08:11:09;20.70;99.90
3542;DHT22;1785;47.388;8.538;2023-09-30T08:13:36;20.50;99.90
3542;DHT22;1785;47.388;8.538;2023-09-30T08:16:02;20.50;99.90
3542;DHT22;1785;47.388;8.538;2023-09-30T08:18:28;20.70;99.90
3542;DHT22;1785;47.388;8.538;2023-09-30T08:20:54;20.90;99.90
3542;DHT22;1785;47.388;8.538;2023-09-30T08:23:20;21.00;99.90
3542;DHT22;1785;47.388;8.538;2023-09-30T08:25:47;21.10;99.90
3542;DHT22;1785;47.388;8.538;2023-09-30T08:28:13;21.20;99.90
3542;DHT22;1785;47.388;8.538;2023-09-30T08:30:39;21.10;99.90
3542;DHT22;1785;47.388;8.538;2023-09-30T08:33:06;21.30;99.90
3542;DHT22;1785;47.388;8.538;2023-09-30T08:35:35;21.30;99.90
3542;DHT22;1785;47.388;8.538;2023-09-30T08:38:02;21.20;99.90
3542;DHT22;1785;47.388;8.538;2023-09-30T08:40:28;21.40;99.90
3542;DHT22;1785;47.388;8.538;2023-09-30T08:42:54;21.50;99.90
3542;DHT22;1785;47.388;8.538;2023-09-30T08:45:21;21.50;99.90
3542;DHT22;1785;47.388;8.538;2023-09-30T08:47:47;21.40;99.90
3542;DHT22;1785;47.388;8.538;2023-09-30T08:50:15;21.50;99.90
3542;DHT22;1785;47.388;8.538;2023-09-30T08:52:43;21.50;99.90
3542;DHT22;1785;47.388;8.538;2023-09-30T08:55:10;21.40;99.90
3542;DHT22;1785;47.388;8.538;2023-09-30T08:57:38;21.20;99.90
3542;DHT22;1785;47.388;8.538;2023-09-30T09:00:06;21.30;99.90
3542;DHT22;1785;47.388;8.538;2023-09-30T09:02:34;21.00;99.90
3542;DHT22;1785;47.388;8.538;2023-09-30T09:05:01;21.00;99.90
3542;DHT22;1785;47.388;8.538;2023-09-30T09:07:27;21.10;99.90
3542;DHT22;1785;47.388;8.538;2023-09-30T09:10:03;21.00;99.90
3542;DHT22;1785;47.388;8.538;2023-09-30T09:12:30;21.20;99.90
3542;DHT22;1785;47.388;8.538;2023-09-30T09:14:56;21.00;99.90
3542;DHT22;1785;47.388;8.538;2023-09-30T09:17:22;20.90;99.90
3542;DHT22;1785;47.388;8.538;2023-09-30T09:19:59;21.10;99.90
3542;DHT22;1785;47.388;8.538;2023-09-30T09:22:37;21.40;99.90
3542;DHT22;1785;47.388;8.538;2023-09-30T09:25:04;21.70;99.90
3542;DHT22;1785;47.388;8.538;2023-09-30T09:27:33;21.90;99.90
3542;DHT22;1785;47.388;8.538;2023-09-30T09:30:14;22.10;99.90
3542;DHT22;1785;47.388;8.538;2023-09-30T09:32:54;21.90;99.90
3542;DHT22;1785;47.388;8.538;2023-09-30T09:35:21;21.70;99.90
3542;DHT22;1785;47.388;8.538;2023-09-30T09:37:58;21.50;99.90
3542;DHT22;1785;47.388;8.538;2023-09-30T09:40:26;21.70;99.90
3542;DHT22;1785;47.388;8.538;2023-09-30T09:42:53;21.90;99.90
3542;DHT22;1785;47.388;8.538;2023-09-30T09:45:21;22.00;99.90
3542;DHT22;1785;47.388;8.538;2023-09-30T09:47:48;21.90;99.90
3542;DHT22;1785;47.388;8.538;2023-09-30T09:50:15;22.10;99.90
3542;DHT22;1785;47.388;8.538;2023-09-30T09:52:42;22.00;99.90
3542;DHT22;1785;47.388;8.538;2023-09-30T09:55:10;22.10;99.90
3542;DHT22;1785;47.388;8.538;2023-09-30T09:57:37;22.10;99.90
3542;DHT22;1785;47.388;8.538;2023-09-30T10:00:05;22.20;99.90
3542;DHT22;1785;47.388;8.538;2023-09-30T10:02:39;22.40;99.90
3542;DHT22;1785;47.388;8.538;2023-09-30T10:05:06;22.50;99.90
3542;DHT22;1785;47.388;8.538;2023-09-30T10:07:35;22.40;99.90
3542;DHT22;1785;47.388;8.538;2023-09-30T10:10:05;22.30;99.90
3542;DHT22;1785;47.388;8.538;2023-09-30T10:12:37;22.30;99.90
3542;DHT22;1785;47.388;8.538;2023-09-30T10:15:35;22.40;99.90
3542;DHT22;1785;47.388;8.538;2023-09-30T10:18:03;22.20;99.90
3542;DHT22;1785;47.388;8.538;2023-09-30T10:20:30;22.30;99.90
3542;DHT22;1785;47.388;8.538;2023-09-30T10:23:26;22.40;99.90
3542;DHT22;1785;47.388;8.538;2023-09-30T10:26:00;22.30;99.90
3542;DHT22;1785;47.388;8.538;2023-09-30T10:28:42;22.00;99.90
3542;DHT22;1785;47.388;8.538;2023-09-30T10:31:11;22.20;99.90
3542;DHT22;1785;47.388;8.538;2023-09-30T10:36:39;22.60;99.90
3542;DHT22;1785;47.388;8.538;2023-09-30T10:39:11;22.70;99.90
3542;DHT22;1785;47.388;8.538;2023-09-30T10:41:51;23.00;99.90
3542;DHT22;1785;47.388;8.538;2023-09-30T10:44:33;22.70;99.90
3542;DHT22;1785;47.388;8.538;2023-09-30T10:47:00;22.70;99.90
3542;DHT22;1785;47.388;8.538;2023-09-30T10:49:32;22.80;99.90
3542;DHT22;1785;47.388;8.538;2023-09-30T10:51:59;22.70;99.90
3542;DHT22;1785;47.388;8.538;2023-09-30T10:54:27;22.50;99.90
3542;DHT22;1785;47.388;8.538;2023-09-30T10:56:54;22.40;99.90
3542;DHT22;1785;47.388;8.538;2023-09-30T10:59:21;22.40;99.90
3542;DHT22;1785;47.388;8.538;2023-09-30T11:01:49;22.50;99.90
3542;DHT22;1785;47.388;8.538;2023-09-30T11:04:15;22.30;99.90
3542;DHT22;1785;47.388;8.538;2023-09-30T11:06:43;22.10;99.90
3542;DHT22;1785;47.388;8.538;2023-09-30T11:09:09;21.80;99.90
3542;DHT22;1785;47.388;8.538;2023-09-30T11:11:40;22.10;99.90
3542;DHT22;1785;47.388;8.538;2023-09-30T11:14:19;22.50;99.90
3542;DHT22;1785;47.388;8.538;2023-09-30T11:16:45;22.50;99.90
3542;DHT22;1785;47.388;8.538;2023-09-30T11:19:12;22.80;99.90
3542;DHT22;1785;47.388;8.538;2023-09-30T11:21:39;22.80;99.90
3542;DHT22;1785;47.388;8.538;2023-09-30T11:24:06;22.70;99.90
3542;DHT22;1785;47.388;8.538;2023-09-30T11:26:33;23.10;99.90
3542;DHT22;1785;47.388;8.538;2023-09-30T11:29:05;23.10;99.90
3542;DHT22;1785;47.388;8.538;2023-09-30T11:31:32;22.60;99.90
3542;DHT22;1785;47.388;8.538;2023-09-30T11:34:00;22.80;99.90
3542;DHT22;1785;47.388;8.538;2023-09-30T11:36:30;22.70;99.90
3542;DHT22;1785;47.388;8.538;2023-09-30T11:38:56;22.70;99.90
3542;DHT22;1785;47.388;8.538;2023-09-30T11:41:22;22.70;99.90
3542;DHT22;1785;47.388;8.538;2023-09-30T11:43:59;22.90;99.90
3542;DHT22;1785;47.388;8.538;2023-09-30T11:46:26;23.00;99.90
3542;DHT22;1785;47.388;8.538;2023-09-30T11:48:57;23.10;99.90
3542;DHT22;1785;47.388;8.538;2023-09-30T11:51:24;22.80;99.90
3542;DHT22;1785;47.388;8.538;2023-09-30T11:53:51;22.90;99.90
3542;DHT22;1785;47.388;8.538;2023-09-30T11:56:17;23.00;99.90
3542;DHT22;1785;47.388;8.538;2023-09-30T11:58:44;23.10;99.90
3542;DHT22;1785;47.388;8.538;2023-09-30T12:01:11;23.20;99.90
3542;DHT22;1785;47.388;8.538;2023-09-30T12:03:39;23.20;99.90
3542;DHT22;1785;47.388;8.538;2023-09-30T12:06:05;23.30;99.90
3542;DHT22;1785;47.388;8.538;2023-09-30T12:08:32;23.40;99.90
3542;DHT22;1785;47.388;8.538;2023-09-30T12:10:59;23.70;99.90
3542;DHT22;1785;47.388;8.538;2023-09-30T12:13:25;23.70;99.90
3542;DHT22;1785;47.388;8.538;2023-09-30T12:15:51;23.80;99.90
3542;DHT22;1785;47.388;8.538;2023-09-30T12:18:18;23.80;99.90
3542;DHT22;1785;47.388;8.538;2023-09-30T12:20:49;24.00;99.90
3542;DHT22;1785;47.388;8.538;2023-09-30T12:23:15;24.20;99.90
3542;DHT22;1785;47.388;8.538;2023-09-30T12:25:41;24.40;99.90
3542;DHT22;1785;47.388;8.538;2023-09-30T12:28:08;24.40;99.90
3542;DHT22;1785;47.388;8.538;2023-09-30T12:30:34;24.10;99.90
3542;DHT22;1785;47.388;8.538;2023-09-30T12:33:00;24.20;99.90
3542;DHT22;1785;47.388;8.538;2023-09-30T12:35:26;24.30;99.90
3542;DHT22;1785;47.388;8.538;2023-09-30T12:37:52;24.20;99.90
3542;DHT22;1785;47.388;8.538;2023-09-30T12:40:18;23.80;99.90
3542;DHT22;1785;47.388;8.538;2023-09-30T12:42:45;23.60;99.90
3542;DHT22;1785;47.388;8.538;2023-09-30T12:45:11;23.50;99.90
3542;DHT22;1785;47.388;8.538;2023-09-30T12:47:39;23.40;99.90
3542;DHT22;1785;47.388;8.538;2023-09-30T12:50:05;23.40;99.90
3542;DHT22;1785;47.388;8.538;2023-09-30T12:52:34;23.50;99.90
3542;DHT22;1785;47.388;8.538;2023-09-30T12:55:00;23.20;99.90
3542;DHT22;1785;47.388;8.538;2023-09-30T12:57:26;23.30;99.90
3542;DHT22;1785;47.388;8.538;2023-09-30T12:59:52;23.40;99.90
3542;DHT22;1785;47.388;8.538;2023-09-30T13:02:20;23.70;99.90
3542;DHT22;1785;47.388;8.538;2023-09-30T13:04:46;24.10;99.90
3542;DHT22;1785;47.388;8.538;2023-09-30T13:07:13;24.40;99.90
3542;DHT22;1785;47.388;8.538;2023-09-30T13:09:39;24.40;99.90
3542;DHT22;1785;47.388;8.538;2023-09-30T13:12:05;24.10;99.90
3542;DHT22;1785;47.388;8.538;2023-09-30T13:14:31;23.90;99.90
3542;DHT22;1785;47.388;8.538;2023-09-30T13:16:57;24.10;99.90
3542;DHT22;1785;47.388;8.538;2023-09-30T13:19:24;24.10;99.90
3542;DHT22;1785;47.388;8.538;2023-09-30T13:21:51;23.90;99.90
3542;DHT22;1785;47.388;8.538;2023-09-30T13:24:18;23.90;99.90
3542;DHT22;1785;47.388;8.538;2023-09-30T13:26:45;24.10;99.90
3542;DHT22;1785;47.388;8.538;2023-09-30T13:29:11;23.60;99.90
3542;DHT22;1785;47.388;8.538;2023-09-30T13:31:38;23.60;99.90
3542;DHT22;1785;47.388;8.538;2023-09-30T13:34:04;23.80;99.90
3542;DHT22;1785;47.388;8.538;2023-09-30T13:36:32;23.80;99.90
3542;DHT22;1785;47.388;8.538;2023-09-30T13:38:58;23.40;99.90
3542;DHT22;1785;47.388;8.538;2023-09-30T13:41:24;23.70;99.90
3542;DHT22;1785;47.388;8.538;2023-09-30T13:43:51;24.00;99.90
3542;DHT22;1785;47.388;8.538;2023-09-30T13:46:18;23.90;99.90
3542;DHT22;1785;47.388;8.538;2023-09-30T13:48:44;23.80;99.90
3542;DHT22;1785;47.388;8.538;2023-09-30T13:51:10;23.90;99.90
3542;DHT22;1785;47.388;8.538;2023-09-30T13:53:37;23.80;99.90
3542;DHT22;1785;47.388;8.538;2023-09-30T13:56:04;23.50;99.90
3542;DHT22;1785;47.388;8.538;2023-09-30T13:58:30;23.50;99.90
3542;DHT22;1785;47.388;8.538;2023-09-30T14:00:56;23.80;99.90
3542;DHT22;1785;47.388;8.538;2023-09-30T14:03:22;24.00;99.90
3542;DHT22;1785;47.388;8.538;2023-09-30T14:05:49;23.70;99.90
3542;DHT22;1785;47.388;8.538;2023-09-30T14:08:16;23.50;99.90
3542;DHT22;1785;47.388;8.538;2023-09-30T14:10:42;23.50;99.90
3542;DHT22;1785;47.388;8.538;2023-09-30T14:13:09;23.60;99.90
3542;DHT22;1785;47.388;8.538;2023-09-30T14:15:36;23.90;99.90
3542;DHT22;1785;47.388;8.538;2023-09-30T14:18:02;23.70;99.90
3542;DHT22;1785;47.388;8.538;2023-09-30T14:20:28;23.80;99.90
3542;DHT22;1785;47.388;8.538;2023-09-30T14:22:55;24.20;99.90
3542;DHT22;1785;47.388;8.538;2023-09-30T14:25:21;24.20;99.90
3542;DHT22;1785;47.388;8.538;2023-09-30T14:27:48;24.10;99.90
3542;DHT22;1785;47.388;8.538;2023-09-30T14:30:14;24.10;99.90
3542;DHT22;1785;47.388;8.538;2023-09-30T14:32:41;24.10;99.90
3542;DHT22;1785;47.388;8.538;2023-09-30T14:35:08;23.90;99.90
3542;DHT22;1785;47.388;8.538;2023-09-30T14:37:34;23.80;99.90
3542;DHT22;1785;47.388;8.538;2023-09-30T14:40:00;23.90;99.90
3542;DHT22;1785;47.388;8.538;2023-09-30T14:42:27;23.90;99.90
3542;DHT22;1785;47.388;8.538;2023-09-30T14:44:56;23.80;99.90
3542;DHT22;1785;47.388;8.538;2023-09-30T14:47:22;24.10;99.90
3542;DHT22;1785;47.388;8.538;2023-09-30T14:49:48;24.00;99.90
3542;DHT22;1785;47.388;8.538;2023-09-30T14:52:15;23.90;99.90
3542;DHT22;1785;47.388;8.538;2023-09-30T14:54:41;24.00;99.90
3542;DHT22;1785;47.388;8.538;2023-09-30T14:57:07;23.90;99.90
3542;DHT22;1785;47.388;8.538;2023-09-30T14:59:34;24.30;99.90
3542;DHT22;1785;47.388;8.538;2023-09-30T15:02:01;24.10;99.90
3542;DHT22;1785;47.388;8.538;2023-09-30T15:04:27;23.90;99.90
3542;DHT22;1785;47.388;8.538;2023-09-30T15:06:53;23.80;99.90
3542;DHT22;1785;47.388;8.538;2023-09-30T15:09:19;23.60;99.90
3542;DHT22;1785;47.388;8.538;2023-09-30T15:11:45;23.80;99.90
3542;DHT22;1785;47.388;8.538;2023-09-30T15:14:11;23.70;99.90
3542;DHT22;1785;47.388;8.538;2023-09-30T15:16:37;23.80;99.90
3542;DHT22;1785;47.388;8.538;2023-09-30T15:19:04;23.70;99.90
3542;DHT22;1785;47.388;8.538;2023-09-30T15:21:30;23.60;99.90
3542;DHT22;1785;47.388;8.538;2023-09-30T15:23:57;23.40;99.90
3542;DHT22;1785;47.388;8.538;2023-09-30T15:26:23;23.60;99.90
3542;DHT22;1785;47.388;8.538;2023-09-30T15:28:49;23.80;99.90
3542;DHT22;1785;47.388;8.538;2023-09-30T15:31:17;23.80;99.90
3542;DHT22;1785;47.388;8.538;2023-09-30T15:33:43;23.60;99.90
3542;DHT22;1785;47.388;8.538;2023-09-30T15:36:10;23.60;99.90
3542;DHT22;1785;47.388;8.538;2023-09-30T15:38:36;23.70;99.90
3542;DHT22;1785;47.388;8.538;2023-09-30T15:41:02;24.00;99.90
3542;DHT22;1785;47.388;8.538;2023-09-30T15:43:29;24.20;99.90
3542;DHT22;1785;47.388;8.538;2023-09-30T15:45:55;24.10;99.90
3542;DHT22;1785;47.388;8.538;2023-09-30T15:48:21;23.70;99.90
3542;DHT22;1785;47.388;8.538;2023-09-30T15:50:48;23.20;99.90
3542;DHT22;1785;47.388;8.538;2023-09-30T15:53:14;23.20;99.90
3542;DHT22;1785;47.388;8.538;2023-09-30T15:55:41;23.30;99.90
3542;DHT22;1785;47.388;8.538;2023-09-30T15:58:07;23.30;99.90
3542;DHT22;1785;47.388;8.538;2023-09-30T16:00:35;23.50;99.90
3542;DHT22;1785;47.388;8.538;2023-09-30T16:03:02;23.80;99.90
3542;DHT22;1785;47.388;8.538;2023-09-30T16:05:28;23.80;99.90